createdAt,value
2022-12-23T08:35:19.883Z,9.77
2022-12-23T08:37:57.384Z,11.50
2022-12-23T08:40:34.438Z,10.60
2022-12-23T08:43:11.896Z,10.20
2022-12-23T08:45:49.340Z,10.10
2022-12-23T08:48:26.739Z,10.27
2022-12-23T08:51:08.448Z,10.27
2022-12-23T08:53:46.050Z,10.20
2022-12-23T08:56:25.969Z,10.27
2022-12-23T08:59:04.418Z,10.73
2022-12-23T09:01:41.596Z,11.27
2022-12-23T09:04:19.025Z,10.60
2022-12-23T09:06:58.663Z,11.60
2022-12-23T09:09:36.855Z,11.73
2022-12-23T09:12:14.050Z,12.67
2022-12-23T09:14:51.469Z,11.83
2022-12-23T09:17:28.512Z,11.17
2022-12-23T09:20:05.856Z,12.23
2022-12-23T09:22:45.548Z,12.43
2022-12-23T09:25:22.881Z,10.70
2022-12-23T09:28:00.261Z,10.67
2022-12-23T09:30:37.746Z,10.17
2022-12-23T09:33:14.700Z,10.63
2022-12-23T09:35:52.026Z,10.63
2022-12-23T09:38:31.646Z,11.53
2022-12-23T09:41:28.315Z,11.03
2022-12-23T09:44:24.969Z,11.63
2022-12-23T09:47:05.770Z,11.97
2022-12-23T09:49:49.539Z,12.17
2022-12-23T09:52:39.825Z,10.90
2022-12-23T09:55:25.194Z,10.57
2022-12-23T09:58:08.325Z,10.27
2022-12-23T10:01:01.089Z,10.60
2022-12-23T10:03:58.601Z,10.30
2022-12-23T10:06:37.512Z,11.20
2022-12-23T10:09:17.435Z,10.03
2022-12-23T10:11:57.466Z,13.03
2022-12-23T10:14:38.312Z,9.50
2022-12-23T10:17:30.481Z,10.93
2022-12-23T10:20:14.876Z,10.07
2022-12-23T10:22:51.786Z,10.67
2022-12-23T10:25:36.704Z,9.90
2022-12-23T10:28:16.393Z,10.83
2022-12-23T10:31:31.038Z,9.80
2022-12-23T10:34:09.012Z,10.37
2022-12-23T10:36:53.834Z,9.90
2022-12-23T10:39:40.428Z,9.03
2022-12-23T10:42:29.086Z,11.00
2022-12-23T10:45:26.508Z,11.33
2022-12-23T10:48:21.942Z,12.60
2022-12-23T10:51:04.633Z,11.30
2022-12-23T10:53:53.576Z,10.75
2022-12-23T10:56:31.976Z,10.97
2022-12-23T10:59:17.108Z,10.87
2022-12-23T11:02:05.279Z,10.87
2022-12-23T11:04:45.038Z,10.07
2022-12-23T11:10:25.142Z,10.77
2022-12-23T11:13:02.621Z,10.77
2022-12-23T11:15:42.416Z,9.70
2022-12-23T11:18:24.859Z,11.33
2022-12-23T11:21:09.824Z,9.90
2022-12-23T11:23:46.926Z,11.00
2022-12-23T11:26:24.629Z,9.73
2022-12-23T11:29:09.866Z,10.13
2022-12-23T11:31:47.798Z,9.60
2022-12-23T11:34:32.105Z,9.97
2022-12-23T11:37:09.470Z,9.70
2022-12-23T11:39:50.649Z,9.73
2022-12-23T11:42:33.438Z,9.23
2022-12-23T11:45:12.407Z,9.10
2022-12-23T11:47:49.774Z,10.17
2022-12-23T11:50:38.112Z,9.67
2022-12-23T11:53:18.345Z,11.23
2022-12-23T11:56:04.727Z,10.83
2022-12-23T11:58:50.374Z,10.97
2022-12-23T12:01:28.777Z,10.23
2022-12-23T12:04:11.242Z,11.10
2022-12-23T12:06:56.424Z,9.67
2022-12-23T12:09:36.196Z,11.97
2022-12-23T12:12:21.491Z,10.83
2022-12-23T12:15:01.804Z,10.83
2022-12-23T12:17:44.285Z,11.00
2022-12-23T12:20:31.356Z,11.05
2022-12-23T12:23:17.610Z,10.77
2022-12-23T12:26:02.447Z,12.77
2022-12-23T12:28:45.084Z,12.67
2022-12-23T12:31:30.073Z,12.15
2022-12-23T12:34:18.028Z,12.77
2022-12-23T12:37:02.765Z,13.43
2022-12-23T12:39:46.909Z,14.43
2022-12-23T12:42:35.896Z,13.00
2022-12-23T12:45:24.238Z,13.00
2022-12-23T12:48:36.828Z,14.63
2022-12-23T12:51:26.023Z,13.43
2022-12-23T12:54:15.437Z,11.90
2022-12-23T12:56:57.854Z,12.07
2022-12-23T12:59:39.174Z,13.07
2022-12-23T13:02:49.966Z,13.43
2022-12-23T13:05:55.345Z,11.53
2022-12-23T13:08:49.113Z,12.97
2022-12-23T13:14:26.367Z,12.20
2022-12-23T13:17:11.729Z,13.27
2022-12-23T13:19:56.149Z,12.47
2022-12-23T13:22:37.535Z,13.57
2022-12-23T13:25:22.314Z,13.20
2022-12-23T13:28:05.774Z,12.80
2022-12-23T13:30:55.852Z,12.95
2022-12-23T13:33:44.832Z,13.10
2022-12-23T13:36:40.741Z,12.77
2022-12-23T13:39:43.878Z,12.23
2022-12-23T13:42:34.555Z,12.20
2022-12-23T13:45:19.789Z,13.67
2022-12-23T13:48:19.937Z,13.13
2022-12-23T13:51:05.323Z,11.93
2022-12-23T13:54:04.175Z,12.40
2022-12-23T13:56:50.385Z,13.93
2022-12-23T13:59:41.033Z,13.03
2022-12-23T14:02:46.959Z,13.67
2022-12-23T14:05:45.705Z,13.10
2022-12-23T14:08:44.308Z,13.93
2022-12-23T14:11:28.445Z,13.40
2022-12-23T14:14:08.572Z,13.63
2022-12-23T14:17:07.525Z,13.90
2022-12-23T14:20:12.365Z,12.53
2022-12-23T14:23:08.720Z,13.73
2022-12-23T14:26:27.475Z,14.77
2022-12-23T14:29:49.336Z,15.60
2022-12-23T14:32:31.340Z,15.23
2022-12-23T14:35:49.085Z,13.30
2022-12-23T14:38:37.696Z,13.87
2022-12-23T14:41:41.569Z,12.97
2022-12-23T14:44:42.848Z,13.30
2022-12-23T14:47:40.341Z,14.40
2022-12-23T14:50:43.533Z,13.40
2022-12-23T14:53:31.726Z,13.87
2022-12-23T14:56:26.047Z,12.93
2022-12-23T14:59:20.728Z,12.43
2022-12-23T15:02:02.394Z,13.03
2022-12-23T15:04:47.109Z,12.53
2022-12-23T15:07:32.118Z,13.33
2022-12-23T15:10:21.775Z,14.00
2022-12-23T15:13:03.228Z,13.13
2022-12-23T15:15:40.276Z,14.60
2022-12-23T15:18:17.746Z,14.40
2022-12-23T15:21:05.219Z,14.27
2022-12-23T15:23:51.237Z,13.50
2022-12-23T15:26:33.886Z,12.77
2022-12-23T15:29:12.226Z,13.90
2022-12-23T15:31:55.151Z,13.07
2022-12-23T15:34:36.616Z,12.77
2022-12-23T15:37:15.998Z,13.60
2022-12-23T15:40:00.469Z,13.93
2022-12-23T15:42:51.939Z,16.10
2022-12-23T15:45:38.144Z,15.27
2022-12-23T15:48:29.285Z,16.30
2022-12-23T15:51:14.370Z,17.10
2022-12-23T15:53:51.917Z,16.33
2022-12-23T15:56:33.588Z,14.07
2022-12-23T15:59:23.541Z,12.13
2022-12-23T16:02:01.096Z,11.10
2022-12-23T16:04:38.162Z,12.60
2022-12-23T16:07:29.943Z,11.40
2022-12-23T16:10:23.435Z,10.33
2022-12-23T16:13:03.231Z,10.20
2022-12-23T16:15:42.809Z,9.40
2022-12-23T16:18:26.618Z,9.23
2022-12-23T16:21:08.172Z,9.18
2022-12-23T16:23:56.177Z,8.30
2022-12-23T16:26:33.451Z,8.90
2022-12-23T16:29:17.210Z,7.67
2022-12-23T16:32:02.027Z,7.50
2022-12-23T16:34:39.730Z,8.50
2022-12-23T16:37:16.691Z,8.10
2022-12-23T16:39:54.021Z,8.13
2022-12-23T16:42:31.070Z,8.33
2022-12-23T16:45:09.558Z,7.93
2022-12-23T16:47:49.147Z,8.37
2022-12-23T16:50:26.456Z,7.80
2022-12-23T16:53:03.386Z,9.90
2022-12-23T16:55:46.236Z,9.00
2022-12-23T16:58:27.388Z,7.83
2022-12-23T17:01:04.782Z,7.10
2022-12-23T17:03:44.427Z,7.20
2022-12-23T17:06:23.614Z,7.60
2022-12-23T17:09:00.581Z,7.70
2022-12-23T17:11:43.351Z,12.20
2022-12-23T17:14:24.347Z,11.40
2022-12-23T17:17:01.772Z,9.53
2022-12-23T17:19:41.443Z,7.93
2022-12-23T17:22:19.435Z,5.90
2022-12-23T17:24:56.332Z,5.80
2022-12-23T17:27:33.701Z,4.70
2022-12-23T17:30:17.427Z,4.93
2022-12-23T17:32:59.484Z,3.77
2022-12-23T17:35:39.014Z,3.53
2022-12-23T17:38:20.004Z,3.67
2022-12-23T17:40:59.344Z,3.80
2022-12-23T17:43:37.404Z,3.70
2022-12-23T17:46:18.737Z,3.87
2022-12-23T17:48:57.575Z,3.50
2022-12-23T17:51:37.279Z,3.97
2022-12-23T17:54:28.403Z,4.60
2022-12-23T17:57:06.932Z,4.77
2022-12-23T17:59:47.710Z,6.23
2022-12-23T18:02:31.072Z,5.03
2022-12-23T18:05:27.758Z,3.80
2022-12-23T18:08:08.557Z,3.33
2022-12-23T18:10:46.614Z,3.27
2022-12-23T18:13:24.827Z,3.00
2022-12-23T18:16:02.608Z,3.10
2022-12-23T18:18:46.301Z,3.50
2022-12-23T18:21:28.260Z,3.13
2022-12-23T18:24:09.825Z,3.30
2022-12-23T18:26:48.039Z,3.00
2022-12-23T18:29:25.564Z,2.73
2022-12-23T18:32:03.920Z,3.13
2022-12-23T18:34:40.832Z,3.50
2022-12-23T18:37:18.213Z,3.00
2022-12-23T18:39:57.834Z,2.93
2022-12-23T18:42:35.332Z,3.00
2022-12-23T18:45:36.023Z,2.70
2022-12-23T18:48:14.389Z,3.20
2022-12-23T18:50:51.398Z,3.30
2022-12-23T18:53:28.810Z,3.30
2022-12-23T18:56:09.191Z,3.77
2022-12-23T18:58:46.833Z,4.23
2022-12-23T19:01:24.029Z,4.60
2022-12-23T19:04:01.388Z,4.90
2022-12-23T19:06:39.086Z,5.40
2022-12-23T19:09:21.229Z,5.20
2022-12-23T19:12:00.809Z,4.60
2022-12-23T19:14:38.137Z,5.33
2022-12-23T19:17:15.142Z,5.50
2022-12-23T19:19:52.444Z,5.43
2022-12-23T19:22:29.843Z,4.90
2022-12-23T19:25:08.580Z,4.90
2022-12-23T19:27:49.634Z,4.37
2022-12-23T19:30:27.060Z,4.20
2022-12-23T19:33:04.039Z,4.23
2022-12-23T19:35:43.808Z,3.83
2022-12-23T19:38:20.732Z,4.00
2022-12-23T19:41:01.102Z,4.00
2022-12-23T19:43:42.284Z,4.67
2022-12-23T19:46:21.336Z,4.03
2022-12-23T19:48:58.573Z,4.10
2022-12-23T19:51:36.701Z,4.30
2022-12-23T19:54:14.061Z,4.57
2022-12-23T19:56:54.362Z,4.47
2022-12-23T19:59:35.385Z,5.13
2022-12-23T20:02:17.756Z,5.07
2022-12-23T20:04:55.764Z,4.50
2022-12-23T20:07:35.151Z,5.37
2022-12-23T20:10:14.345Z,4.40
2022-12-23T20:12:52.536Z,4.60
2022-12-23T20:15:33.162Z,4.73
2022-12-23T20:18:11.212Z,4.97
2022-12-23T20:20:48.642Z,4.53
2022-12-23T20:23:26.892Z,4.43
2022-12-23T20:26:05.922Z,4.37
2022-12-23T20:28:45.049Z,4.63
2022-12-23T20:31:28.265Z,4.60
2022-12-23T20:34:06.546Z,4.72
2022-12-23T20:36:45.023Z,4.73
2022-12-23T20:39:22.783Z,5.00
2022-12-23T20:42:00.846Z,6.40
2022-12-23T20:44:38.384Z,7.13
2022-12-23T20:47:18.863Z,7.27
2022-12-23T20:49:56.741Z,8.07
2022-12-23T20:52:34.036Z,9.23
2022-12-23T20:55:13.129Z,8.73
2022-12-23T20:57:50.138Z,10.47
2022-12-23T21:00:28.301Z,10.80
2022-12-23T21:03:10.813Z,11.73
2022-12-23T21:05:48.475Z,10.68
2022-12-23T21:08:25.502Z,11.53
2022-12-23T21:11:03.821Z,12.47
2022-12-23T21:13:41.480Z,11.30
2022-12-23T21:16:22.373Z,13.20
2022-12-23T21:19:04.077Z,12.37
2022-12-23T21:21:41.701Z,12.83
2022-12-23T21:24:19.605Z,11.80
